createdAt,value
2018-08-18T00:02:27.448Z,1.73
2018-08-18T00:05:02.535Z,0.70
2018-08-18T00:07:37.323Z,0.80
2018-08-18T00:10:13.028Z,2.30
2018-08-18T00:12:47.876Z,1.20
2018-08-18T00:15:22.796Z,0.90
2018-08-18T00:17:57.637Z,1.10
2018-08-18T00:20:32.671Z,1.13
2018-08-18T00:23:07.778Z,3.83
2018-08-18T00:25:42.648Z,1.20
2018-08-18T00:28:21.539Z,0.73
2018-08-18T00:30:56.430Z,2.87
2018-08-18T00:33:31.190Z,0.90
2018-08-18T00:36:06.355Z,0.80
2018-08-18T00:38:41.194Z,1.57
2018-08-18T00:41:16.036Z,1.13
2018-08-18T00:43:50.936Z,1.23
2018-08-18T00:46:26.710Z,0.80
2018-08-18T00:49:01.861Z,0.70
2018-08-18T00:51:37.863Z,0.97
2018-08-18T00:54:12.983Z,1.00
2018-08-18T00:56:47.907Z,1.63
2018-08-18T00:59:34.177Z,0.90
2018-08-18T01:02:09.025Z,0.97
2018-08-18T01:04:49.379Z,1.47
2018-08-18T01:07:26.380Z,0.97
2018-08-18T01:10:02.040Z,0.90
2018-08-18T01:12:37.056Z,2.00
2018-08-18T01:15:16.200Z,1.53
2018-08-18T01:17:51.382Z,2.40
2018-08-18T01:20:26.471Z,1.10
2018-08-18T01:23:01.865Z,0.73
2018-08-18T01:25:36.717Z,2.57
2018-08-18T01:28:11.734Z,1.83
2018-08-18T01:30:51.539Z,0.77
2018-08-18T01:33:26.677Z,0.90
2018-08-18T01:36:01.853Z,0.70
2018-08-18T01:38:37.744Z,2.70
2018-08-18T01:41:20.121Z,0.57
2018-08-18T01:44:10.094Z,1.07
2018-08-18T01:46:47.793Z,1.10
2018-08-18T01:49:29.060Z,1.03
2018-08-18T01:52:12.568Z,0.60
2018-08-18T01:54:47.684Z,0.90
2018-08-18T01:57:23.171Z,1.13
2018-08-18T01:59:58.104Z,1.17
2018-08-18T02:02:33.256Z,1.20
2018-08-18T02:05:15.952Z,0.80
2018-08-18T02:07:50.976Z,0.70
2018-08-18T02:10:26.128Z,0.80
2018-08-18T02:13:02.976Z,0.80
2018-08-18T02:15:37.760Z,0.90
2018-08-18T02:18:12.768Z,1.00
2018-08-18T02:20:47.850Z,1.00
2018-08-18T02:23:23.045Z,0.70
2018-08-18T02:25:57.941Z,0.90
2018-08-18T02:28:33.056Z,1.20
2018-08-18T02:31:08.152Z,0.80
2018-08-18T02:33:43.242Z,5.50
2018-08-18T02:36:18.319Z,1.00
2018-08-18T02:38:57.238Z,0.60
2018-08-18T02:41:33.229Z,2.30
2018-08-18T02:44:08.400Z,0.80
2018-08-18T02:46:43.510Z,0.73
2018-08-18T02:49:18.573Z,2.10
2018-08-18T02:51:53.422Z,0.80
2018-08-18T02:54:32.716Z,0.70
2018-08-18T02:57:07.640Z,0.90
2018-08-18T02:59:42.443Z,0.80
2018-08-18T03:02:17.435Z,1.03
2018-08-18T03:04:52.321Z,3.30
2018-08-18T03:07:30.578Z,0.80
2018-08-18T03:10:13.113Z,1.27
2018-08-18T03:12:47.967Z,1.23
2018-08-18T03:16:01.654Z,1.43
2018-08-18T03:18:52.262Z,0.60
2018-08-18T03:21:32.850Z,1.17
2018-08-18T03:24:14.787Z,0.63
2018-08-18T03:26:52.100Z,0.73
2018-08-18T03:29:28.400Z,0.67
2018-08-18T03:32:03.744Z,0.70
2018-08-18T03:34:38.666Z,1.03
2018-08-18T03:37:25.994Z,1.20
2018-08-18T03:40:01.009Z,1.63
2018-08-18T03:42:41.238Z,1.17
2018-08-18T03:45:16.298Z,0.93
2018-08-18T03:47:51.467Z,1.90
2018-08-18T03:50:41.031Z,0.70
2018-08-18T03:53:18.123Z,0.93
2018-08-18T03:55:52.916Z,0.80
2018-08-18T03:58:28.030Z,0.60
2018-08-18T04:01:03.199Z,0.60
2018-08-18T04:03:38.250Z,1.73
2018-08-18T04:06:13.167Z,0.60
2018-08-18T04:08:48.246Z,1.63
2018-08-18T04:11:22.994Z,0.70
2018-08-18T04:13:58.058Z,1.27
2018-08-18T04:16:32.934Z,2.70
2018-08-18T04:19:07.600Z,0.63
2018-08-18T04:21:42.695Z,0.80
2018-08-18T04:24:17.843Z,0.60
2018-08-18T04:26:52.692Z,0.73
2018-08-18T04:29:27.728Z,0.80
2018-08-18T04:32:02.859Z,0.60
2018-08-18T04:34:37.709Z,0.97
2018-08-18T04:37:12.789Z,0.60
2018-08-18T04:39:48.027Z,0.90
2018-08-18T04:42:22.857Z,1.03
2018-08-18T04:44:57.677Z,0.70
2018-08-18T04:47:32.864Z,1.93
2018-08-18T04:50:07.615Z,0.80
2018-08-18T04:52:42.847Z,0.60
2018-08-18T04:55:18.085Z,0.60
2018-08-18T04:57:52.897Z,0.87
2018-08-18T05:00:27.946Z,1.20
2018-08-18T05:03:03.086Z,1.23
2018-08-18T05:05:38.206Z,3.33
2018-08-18T05:08:12.772Z,0.60
2018-08-18T05:10:47.833Z,0.80
2018-08-18T05:13:22.798Z,0.70
2018-08-18T05:15:57.587Z,1.90
2018-08-18T05:18:32.386Z,3.27
2018-08-18T05:21:07.109Z,1.70
2018-08-18T05:23:41.933Z,1.20
2018-08-18T05:26:16.849Z,0.93
2018-08-18T05:28:51.715Z,1.23
2018-08-18T05:31:26.549Z,7.40
2018-08-18T05:34:01.438Z,0.80
2018-08-18T05:36:30.935Z,0.80
2018-08-18T05:39:00.216Z,7.77
2018-08-18T05:41:29.508Z,0.80
2018-08-18T05:43:58.849Z,2.87
2018-08-18T05:46:28.171Z,0.80
2018-08-18T05:49:01.621Z,1.00
2018-08-18T05:51:35.051Z,1.23
2018-08-18T05:54:04.621Z,4.00
2018-08-18T05:56:33.975Z,5.73
2018-08-18T05:59:03.093Z,0.70
2018-08-18T06:01:39.755Z,5.40
2018-08-18T06:04:18.510Z,1.07
2018-08-18T06:06:48.629Z,1.53
2018-08-18T06:09:20.235Z,1.60
2018-08-18T06:11:49.725Z,2.80
2018-08-18T06:14:19.290Z,5.20
2018-08-18T06:16:48.631Z,17.00
2018-08-18T06:19:18.202Z,25.70
2018-08-18T06:21:47.741Z,14.45
2018-08-18T06:24:17.047Z,28.17
2018-08-18T06:26:46.906Z,43.53
2018-08-18T06:29:16.750Z,39.17
2018-08-18T06:31:59.339Z,30.27
2018-08-18T06:34:31.545Z,28.03
2018-08-18T06:37:01.678Z,20.13
2018-08-18T06:39:46.637Z,36.60
2018-08-18T06:42:22.150Z,23.70
2018-08-18T06:44:51.673Z,34.57
2018-08-18T06:47:21.055Z,36.37
2018-08-18T06:49:50.383Z,23.50
2018-08-18T06:52:20.478Z,26.57
2018-08-18T06:54:51.738Z,35.77
2018-08-18T06:57:26.429Z,25.70
2018-08-18T06:59:59.716Z,22.07
2018-08-18T07:02:29.035Z,31.33
2018-08-18T07:04:58.140Z,32.43
2018-08-18T07:07:31.123Z,36.83
2018-08-18T07:10:14.879Z,36.33
2018-08-18T07:12:46.321Z,27.90
2018-08-18T07:15:18.058Z,14.45
2018-08-18T07:17:48.295Z,11.78
2018-08-18T07:20:17.908Z,6.92
2018-08-18T07:22:46.996Z,7.90
2018-08-18T07:25:17.305Z,7.23
2018-08-18T07:27:46.606Z,4.83
2018-08-18T07:30:15.710Z,6.33
2018-08-18T07:32:44.811Z,8.33
2018-08-18T07:35:14.099Z,14.93
2018-08-18T07:37:43.420Z,15.83
2018-08-18T07:40:13.096Z,7.13
2018-08-18T07:42:43.132Z,2.83
2018-08-18T07:45:12.281Z,5.20
2018-08-18T07:47:41.737Z,7.87
2018-08-18T07:50:11.591Z,4.23
2018-08-18T07:52:42.239Z,1.37
2018-08-18T07:55:12.073Z,7.33
2018-08-18T07:57:46.424Z,9.65
2018-08-18T08:00:15.964Z,2.70
2018-08-18T08:02:45.278Z,5.37
2018-08-18T08:05:14.596Z,6.83
2018-08-18T08:07:44.230Z,5.77
2018-08-18T08:10:13.409Z,4.70
2018-08-18T08:12:42.910Z,15.00
2018-08-18T08:15:13.865Z,5.53
2018-08-18T08:17:43.982Z,19.30
2018-08-18T08:20:14.347Z,5.90
2018-08-18T08:22:44.126Z,5.23
2018-08-18T08:25:13.698Z,6.33
2018-08-18T08:27:46.062Z,8.33
2018-08-18T08:30:16.154Z,10.50
2018-08-18T08:32:45.669Z,4.30
2018-08-18T08:35:15.271Z,8.60
2018-08-18T08:37:45.437Z,5.97
2018-08-18T08:40:15.788Z,7.73
2018-08-18T08:42:45.125Z,4.27
2018-08-18T08:45:17.005Z,6.07
2018-08-18T08:47:47.087Z,18.20
2018-08-18T08:50:18.687Z,19.20
2018-08-18T08:52:49.567Z,10.13
2018-08-18T08:55:20.033Z,12.67
2018-08-18T08:57:49.436Z,17.23
2018-08-18T09:00:18.997Z,25.75
2018-08-18T09:02:48.544Z,17.20
2018-08-18T09:05:18.043Z,14.05
2018-08-18T09:07:47.380Z,13.90
2018-08-18T09:10:17.420Z,19.20
2018-08-18T09:12:46.829Z,22.90
2018-08-18T09:15:17.558Z,18.10
2018-08-18T09:17:46.861Z,14.43
2018-08-18T09:20:18.332Z,7.90
2018-08-18T09:22:50.694Z,13.83
2018-08-18T09:25:20.062Z,11.57
2018-08-18T09:27:54.292Z,8.40
2018-08-18T09:30:24.858Z,9.20
2018-08-18T09:32:54.258Z,9.28
2018-08-18T09:35:23.580Z,10.93
2018-08-18T09:37:59.987Z,8.07
2018-08-18T09:40:30.644Z,7.72
2018-08-18T09:43:00.560Z,9.70
2018-08-18T09:45:29.977Z,11.63
2018-08-18T09:47:59.225Z,6.50
2018-08-18T09:50:28.342Z,4.10
2018-08-18T09:52:57.679Z,5.17
2018-08-18T09:55:26.999Z,9.13
2018-08-18T09:57:56.394Z,4.10
2018-08-18T10:00:31.407Z,5.90
2018-08-18T10:03:00.720Z,4.67
2018-08-18T10:05:30.083Z,6.83
2018-08-18T10:07:59.652Z,7.93
2018-08-18T10:10:29.352Z,4.77
2018-08-18T10:12:59.021Z,7.87
2018-08-18T10:15:28.404Z,5.67
2018-08-18T10:17:57.743Z,7.30
2018-08-18T10:20:27.297Z,8.03
2018-08-18T10:22:56.609Z,2.53
2018-08-18T10:25:25.932Z,3.47
2018-08-18T10:27:55.287Z,5.73
2018-08-18T10:30:24.619Z,5.60
2018-08-18T10:32:54.861Z,7.07
2018-08-18T10:35:31.100Z,3.70
2018-08-18T10:38:01.956Z,4.50
2018-08-18T10:40:31.254Z,5.17
2018-08-18T10:43:00.341Z,7.20
2018-08-18T10:45:29.738Z,3.27
2018-08-18T10:47:59.056Z,2.23
2018-08-18T10:52:44.110Z,6.47
2018-08-18T10:55:14.925Z,2.73
2018-08-18T10:57:50.626Z,4.50
2018-08-18T11:00:21.362Z,1.53
2018-08-18T11:02:52.496Z,7.00
2018-08-18T11:05:22.735Z,3.73
2018-08-18T11:08:12.778Z,4.97
2018-08-18T11:10:42.152Z,10.90
2018-08-18T11:13:11.501Z,3.77
2018-08-18T11:15:41.684Z,4.00
2018-08-18T11:18:11.919Z,7.93
2018-08-18T11:20:41.531Z,2.20
2018-08-18T11:23:12.517Z,5.50
2018-08-18T11:25:46.935Z,2.23
2018-08-18T11:28:16.707Z,5.83
2018-08-18T11:30:46.499Z,3.80
2018-08-18T11:33:32.846Z,12.80
2018-08-18T11:36:03.429Z,7.23
2018-08-18T11:38:33.355Z,4.62
2018-08-18T11:41:02.894Z,6.40
2018-08-18T11:43:48.086Z,2.33
2018-08-18T11:46:17.439Z,3.80
2018-08-18T11:48:47.000Z,4.73
2018-08-18T11:51:16.602Z,1.77
2018-08-18T11:53:51.443Z,5.13
2018-08-18T11:56:20.538Z,9.33
2018-08-18T11:59:02.814Z,5.23
2018-08-18T12:01:34.424Z,3.57
2018-08-18T12:04:03.524Z,6.90
2018-08-18T12:06:32.620Z,7.97
2018-08-18T12:09:01.935Z,5.20
2018-08-18T12:11:31.074Z,7.23
2018-08-18T12:14:00.418Z,6.03
2018-08-18T12:16:29.737Z,2.93
2018-08-18T12:18:59.124Z,8.10
2018-08-18T12:21:32.749Z,6.93
2018-08-18T12:24:01.862Z,6.23
2018-08-18T12:26:31.170Z,2.63
2018-08-18T12:29:00.253Z,4.73
2018-08-18T12:31:29.366Z,5.43
2018-08-18T12:33:58.460Z,2.70
2018-08-18T12:36:27.568Z,2.50
2018-08-18T12:38:58.108Z,2.27
2018-08-18T12:41:27.417Z,3.70
2018-08-18T12:43:58.019Z,4.72
2018-08-18T12:46:34.939Z,7.60
2018-08-18T12:49:05.633Z,7.80
2018-08-18T12:51:34.946Z,4.25
2018-08-18T12:54:04.352Z,3.27
2018-08-18T12:56:33.892Z,2.13
2018-08-18T12:59:03.458Z,3.50
2018-08-18T13:01:42.174Z,5.80
2018-08-18T13:04:15.681Z,4.93
2018-08-18T13:06:51.076Z,2.23
2018-08-18T13:09:22.690Z,4.13
2018-08-18T13:11:53.227Z,1.93
2018-08-18T13:14:23.160Z,3.17
2018-08-18T13:16:52.514Z,2.97
2018-08-18T13:19:24.488Z,4.40
2018-08-18T13:21:53.572Z,2.53
2018-08-18T13:24:22.693Z,3.23
2018-08-18T13:26:52.025Z,6.43
2018-08-18T13:29:21.918Z,2.95
2018-08-18T13:31:51.761Z,2.40
2018-08-18T13:34:21.605Z,4.60
2018-08-18T13:36:51.430Z,2.77
2018-08-18T13:39:21.041Z,8.93
2018-08-18T13:41:50.635Z,8.40
2018-08-18T13:44:27.053Z,9.43
2018-08-18T13:46:56.170Z,3.80
2018-08-18T13:49:26.415Z,10.23
2018-08-18T13:51:56.037Z,9.33
2018-08-18T13:54:25.546Z,9.03
2018-08-18T13:56:55.093Z,7.30
2018-08-18T13:59:34.097Z,4.77
2018-08-18T14:02:03.203Z,10.63
2018-08-18T14:04:32.579Z,8.80
2018-08-18T14:07:02.223Z,4.10
2018-08-18T14:09:31.329Z,3.63
2018-08-18T14:12:06.051Z,6.93
2018-08-18T14:14:35.568Z,8.40
2018-08-18T14:17:05.014Z,8.63
2018-08-18T14:19:34.117Z,10.20
2018-08-18T14:22:06.117Z,6.10
2018-08-18T14:24:36.598Z,12.60
2018-08-18T14:27:11.551Z,6.57
2018-08-18T14:29:40.640Z,10.43
2018-08-18T14:32:14.150Z,4.97
2018-08-18T14:34:46.811Z,3.70
2018-08-18T14:37:15.928Z,6.20
2018-08-18T14:39:45.000Z,9.23
2018-08-18T14:42:14.112Z,6.40
2018-08-18T14:44:44.517Z,5.80
2018-08-18T14:47:13.823Z,6.90
2018-08-18T14:49:43.141Z,4.30
2018-08-18T14:52:12.470Z,1.90
2018-08-18T14:54:41.902Z,12.28
2018-08-18T14:57:11.207Z,5.73
2018-08-18T14:59:40.526Z,4.10
2018-08-18T15:02:09.853Z,10.00
2018-08-18T15:04:39.437Z,8.40
2018-08-18T15:07:08.799Z,3.92
2018-08-18T15:09:43.036Z,5.67
2018-08-18T15:12:12.971Z,3.60
2018-08-18T15:14:42.577Z,6.83
2018-08-18T15:17:12.407Z,13.63
2018-08-18T15:19:42.227Z,3.93
2018-08-18T15:22:12.731Z,7.13
2018-08-18T15:24:42.056Z,5.60
2018-08-18T15:27:11.373Z,7.67
2018-08-18T15:29:40.704Z,6.87
2018-08-18T15:32:10.255Z,9.50
2018-08-18T15:34:39.813Z,12.30
2018-08-18T15:37:09.356Z,6.03
2018-08-18T15:39:38.925Z,10.93
2018-08-18T15:42:08.468Z,2.63
2018-08-18T15:44:51.004Z,7.17
2018-08-18T15:47:20.579Z,6.07
2018-08-18T15:49:50.007Z,13.50
2018-08-18T15:52:20.819Z,12.90
2018-08-18T15:54:50.308Z,16.23
2018-08-18T15:57:19.410Z,24.75
2018-08-18T15:59:48.766Z,20.80
2018-08-18T16:02:18.088Z,24.97
2018-08-18T16:04:47.232Z,31.13
2018-08-18T16:07:16.435Z,19.77
2018-08-18T16:09:45.548Z,14.10
2018-08-18T16:12:14.673Z,19.07
2018-08-18T16:14:43.769Z,13.67
2018-08-18T16:17:12.859Z,21.03
2018-08-18T16:19:42.200Z,11.50
2018-08-18T16:22:11.738Z,18.43
2018-08-18T16:24:43.697Z,14.63
2018-08-18T16:27:13.050Z,13.60
2018-08-18T16:29:42.587Z,7.43
2018-08-18T16:32:15.895Z,8.98
2018-08-18T16:34:47.034Z,8.30
2018-08-18T16:37:16.329Z,15.00
2018-08-18T16:39:45.475Z,13.77
2018-08-18T16:42:15.191Z,11.70
2018-08-18T16:44:44.430Z,11.10
2018-08-18T16:47:13.784Z,13.00
2018-08-18T16:49:43.120Z,12.97
2018-08-18T16:52:12.261Z,13.00
2018-08-18T16:54:41.343Z,15.97
2018-08-18T16:57:10.735Z,12.80
2018-08-18T16:59:40.282Z,18.27
2018-08-18T17:02:24.293Z,24.05
2018-08-18T17:04:54.984Z,8.30
2018-08-18T17:07:26.261Z,12.63
2018-08-18T17:09:55.800Z,19.23
2018-08-18T17:12:28.969Z,16.60
2018-08-18T17:14:58.256Z,9.83
2018-08-18T17:17:27.499Z,12.60
2018-08-18T17:19:56.610Z,10.83
2018-08-18T17:22:25.960Z,15.73
2018-08-18T17:24:56.284Z,15.23
2018-08-18T17:27:28.341Z,19.23
2018-08-18T17:30:02.077Z,14.43
2018-08-18T17:32:31.385Z,16.20
2018-08-18T17:35:00.489Z,7.03
2018-08-18T17:37:29.740Z,12.23
2018-08-18T17:39:58.848Z,14.33
2018-08-18T17:42:28.462Z,13.28
2018-08-18T17:44:58.413Z,10.63
2018-08-18T17:47:28.308Z,15.30
2018-08-18T17:49:58.517Z,11.15
2018-08-18T17:52:28.411Z,14.80
2018-08-18T17:55:09.504Z,14.03
2018-08-18T17:57:39.114Z,8.40
2018-08-18T18:00:15.036Z,13.83
2018-08-18T18:02:50.124Z,11.17
2018-08-18T18:05:22.246Z,9.07
2018-08-18T18:07:55.656Z,5.77
2018-08-18T18:10:26.984Z,8.27
2018-08-18T18:12:56.535Z,10.67
2018-08-18T18:15:36.383Z,7.40
2018-08-18T18:18:06.705Z,6.80
2018-08-18T18:20:35.820Z,5.53
2018-08-18T18:23:07.383Z,4.53
2018-08-18T18:25:36.733Z,6.30
2018-08-18T18:28:06.044Z,7.63
2018-08-18T18:30:35.148Z,4.72
2018-08-18T18:33:04.265Z,8.03
2018-08-18T18:35:33.622Z,3.87
2018-08-18T18:38:03.563Z,5.87
2018-08-18T18:40:33.467Z,5.87
2018-08-18T18:43:03.190Z,7.80
2018-08-18T18:45:32.282Z,5.40
2018-08-18T18:48:01.433Z,8.50
2018-08-18T18:50:30.519Z,4.30
2018-08-18T18:52:59.607Z,6.47
2018-08-18T18:55:30.026Z,5.87
2018-08-18T18:58:07.489Z,4.50
2018-08-18T19:00:38.030Z,6.65
2018-08-18T19:03:08.240Z,4.20
2018-08-18T19:05:37.572Z,5.03
2018-08-18T19:08:10.040Z,5.60
2018-08-18T19:10:40.025Z,5.07
2018-08-18T19:13:09.726Z,4.20
2018-08-18T19:15:38.927Z,4.62
2018-08-18T19:18:09.799Z,4.20
2018-08-18T19:20:39.103Z,4.67
2018-08-18T19:23:16.640Z,5.80
2018-08-18T19:25:47.782Z,4.22
2018-08-18T19:28:18.448Z,11.30
2018-08-18T19:30:47.869Z,5.43
2018-08-18T19:33:17.348Z,5.33
2018-08-18T19:35:47.557Z,5.87
2018-08-18T19:38:17.661Z,7.43
2018-08-18T19:40:48.559Z,4.80
2018-08-18T19:43:23.165Z,6.37
2018-08-18T19:45:53.075Z,3.60
2018-08-18T19:48:25.672Z,6.17
2018-08-18T19:51:00.533Z,3.77
2018-08-18T19:53:35.200Z,4.53
2018-08-18T19:56:08.264Z,3.33
2018-08-18T19:58:38.116Z,5.87
2018-08-18T20:01:07.380Z,4.92
2018-08-18T20:03:36.732Z,5.47
2018-08-18T20:06:13.240Z,4.20
2018-08-18T20:08:42.473Z,4.70
2018-08-18T20:11:11.792Z,3.30
2018-08-18T20:13:41.608Z,3.42
2018-08-18T20:16:11.153Z,8.83
2018-08-18T20:18:40.554Z,3.50
2018-08-18T20:21:09.989Z,3.60
2018-08-18T20:23:39.536Z,6.15
2018-08-18T20:26:08.860Z,3.60
2018-08-18T20:28:38.183Z,5.47
2018-08-18T20:31:07.745Z,4.17
2018-08-18T20:33:37.075Z,4.87
2018-08-18T20:36:06.456Z,3.90
2018-08-18T20:38:40.149Z,3.50
2018-08-18T20:41:09.481Z,3.50
2018-08-18T20:43:39.719Z,5.13
2018-08-18T20:46:09.290Z,3.83
2018-08-18T20:48:39.209Z,3.65
2018-08-18T20:51:09.069Z,5.27
2018-08-18T20:53:38.185Z,4.08
2018-08-18T20:56:07.251Z,6.67
2018-08-18T20:58:36.369Z,6.53
2018-08-18T21:01:05.695Z,5.27
2018-08-18T21:03:48.281Z,4.00
2018-08-18T21:06:18.785Z,13.93
2018-08-18T21:08:48.695Z,5.20
2018-08-18T21:11:18.048Z,5.47
2018-08-18T21:13:48.364Z,4.30
2018-08-18T21:16:18.575Z,4.27
2018-08-18T21:18:47.683Z,7.50
2018-08-18T21:21:29.497Z,5.80
2018-08-18T21:23:58.796Z,9.10
2018-08-18T21:26:28.061Z,18.00
2018-08-18T21:28:59.219Z,8.60
2018-08-18T21:31:33.419Z,16.23
2018-08-18T21:34:04.135Z,7.77
2018-08-18T21:36:33.863Z,12.60
2018-08-18T21:39:06.281Z,14.43
2018-08-18T21:41:37.877Z,16.07
2018-08-18T21:44:09.625Z,10.93
2018-08-18T21:46:39.395Z,14.60
2018-08-18T21:49:08.967Z,17.43
2018-08-18T21:51:38.059Z,11.83
2018-08-18T21:54:07.152Z,14.87
2018-08-18T21:56:37.682Z,13.27
2018-08-18T21:59:08.329Z,11.30
2018-08-18T22:01:37.447Z,23.40
2018-08-18T22:04:07.710Z,16.00
2018-08-18T22:06:37.027Z,16.50
2018-08-18T22:09:15.102Z,16.30
2018-08-18T22:11:44.207Z,17.87
2018-08-18T22:14:14.584Z,15.10
2018-08-18T22:16:49.447Z,17.10
2018-08-18T22:19:19.334Z,16.60
2018-08-18T22:21:48.710Z,18.00
2018-08-18T22:24:17.833Z,16.43
2018-08-18T22:26:47.180Z,21.53
2018-08-18T22:29:16.508Z,17.15
2018-08-18T22:31:45.856Z,24.80
2018-08-18T22:34:15.193Z,15.53
2018-08-18T22:36:44.315Z,15.77
2018-08-18T22:39:13.408Z,16.23
2018-08-18T22:41:43.520Z,19.70
2018-08-18T22:44:13.076Z,21.53
2018-08-18T22:46:42.408Z,16.57
2018-08-18T22:49:11.505Z,16.57
2018-08-18T22:51:40.835Z,21.77
2018-08-18T22:54:10.633Z,20.43
2018-08-18T22:56:39.727Z,14.00
2018-08-18T22:59:09.066Z,24.25
2018-08-18T23:01:38.654Z,19.17
2018-08-18T23:04:39.312Z,15.40
2018-08-18T23:07:08.996Z,19.37
2018-08-18T23:09:38.298Z,13.03
2018-08-18T23:12:07.845Z,19.97
2018-08-18T23:14:40.681Z,19.20
2018-08-18T23:17:11.211Z,17.80
2018-08-18T23:19:40.756Z,14.85
2018-08-18T23:22:15.598Z,17.82
2018-08-18T23:24:44.714Z,24.87
2018-08-18T23:27:13.804Z,16.43
2018-08-18T23:29:43.172Z,15.70
2018-08-18T23:32:21.867Z,13.87
2018-08-18T23:34:54.124Z,17.97
2018-08-18T23:37:23.731Z,16.30
2018-08-18T23:39:54.109Z,17.93
2018-08-18T23:42:25.403Z,13.40
2018-08-18T23:44:54.737Z,13.10
2018-08-18T23:47:23.909Z,16.37
2018-08-18T23:49:53.239Z,13.50
2018-08-18T23:52:22.535Z,14.90
2018-08-18T23:54:52.345Z,15.97
2018-08-18T23:57:21.444Z,12.43
2018-08-18T23:59:50.783Z,12.30
